createdAt,value
2023-02-16T00:00:47.681Z,-3.37
2023-02-16T00:03:19.292Z,-3.39
2023-02-16T00:05:47.595Z,-3.42
2023-02-16T00:08:16.888Z,-3.44
2023-02-16T00:11:06.880Z,-3.46
2023-02-16T00:13:53.287Z,-3.48
2023-02-16T00:16:23.225Z,-3.49
2023-02-16T00:18:52.007Z,-3.51
2023-02-16T00:21:20.479Z,-3.51
2023-02-16T00:23:49.247Z,-3.51
2023-02-16T00:26:24.555Z,-3.51
2023-02-16T00:28:54.306Z,-3.51
2023-02-16T00:31:27.128Z,-3.50
2023-02-16T00:33:56.900Z,-3.49
2023-02-16T00:36:26.327Z,-3.48
2023-02-16T00:38:54.951Z,-3.47
2023-02-16T00:41:43.454Z,-3.46
2023-02-16T00:44:17.659Z,-3.46
2023-02-16T00:46:46.551Z,-3.44
2023-02-16T00:49:16.664Z,-3.44
2023-02-16T00:51:49.405Z,-3.43
2023-02-16T00:54:18.234Z,-3.42
2023-02-16T00:56:46.825Z,-3.43
2023-02-16T00:59:18.175Z,-3.43
2023-02-16T01:01:47.208Z,-3.43
2023-02-16T01:04:22.005Z,-3.43
2023-02-16T01:07:09.823Z,-3.43
2023-02-16T01:09:57.043Z,-3.44
2023-02-16T01:12:25.541Z,-3.44
2023-02-16T01:14:55.452Z,-3.44
2023-02-16T01:17:26.998Z,-3.45
2023-02-16T01:19:58.087Z,-3.45
2023-02-16T01:22:27.334Z,-3.46
2023-02-16T01:24:56.129Z,-3.46
2023-02-16T01:27:26.854Z,-3.44
2023-02-16T01:29:55.828Z,-3.42
2023-02-16T01:32:24.376Z,-3.43
2023-02-16T01:34:52.937Z,-3.44
2023-02-16T01:37:21.871Z,-3.45
2023-02-16T01:39:51.218Z,-3.47
2023-02-16T01:42:26.253Z,-3.48
2023-02-16T01:44:58.856Z,-3.49
2023-02-16T01:47:33.569Z,-3.51
2023-02-16T01:50:23.431Z,-3.51
2023-02-16T01:53:03.408Z,-3.51
2023-02-16T01:55:34.524Z,-3.49
2023-02-16T01:58:05.672Z,-3.50
2023-02-16T02:00:49.769Z,-3.50
2023-02-16T02:03:58.071Z,-3.52
2023-02-16T02:06:33.169Z,-3.53
2023-02-16T02:09:25.147Z,-3.55
2023-02-16T02:11:55.157Z,-3.58
2023-02-16T02:14:29.189Z,-3.60
2023-02-16T02:17:18.346Z,-3.62
2023-02-16T02:20:05.158Z,-3.65
2023-02-16T02:22:52.791Z,-3.67
2023-02-16T02:25:24.696Z,-3.68
2023-02-16T02:28:06.170Z,-3.68
2023-02-16T02:30:38.094Z,-3.68
2023-02-16T02:33:15.225Z,-3.68
2023-02-16T02:36:25.691Z,-3.69
2023-02-16T02:39:04.968Z,-3.70
2023-02-16T02:42:05.049Z,-3.69
2023-02-16T02:44:49.300Z,-3.67
2023-02-16T02:47:17.678Z,-3.65
2023-02-16T02:49:53.032Z,-3.63
2023-02-16T02:52:22.133Z,-3.62
2023-02-16T02:55:09.645Z,-3.60
2023-02-16T02:58:03.473Z,-3.59
2023-02-16T03:00:41.412Z,-3.59
2023-02-16T03:03:18.309Z,-3.58
2023-02-16T03:05:52.018Z,-3.59
2023-02-16T03:08:23.352Z,-3.58
2023-02-16T03:11:16.421Z,-3.57
2023-02-16T03:14:18.889Z,-3.56
2023-02-16T03:16:51.464Z,-3.56
2023-02-16T03:19:38.404Z,-3.56
2023-02-16T03:22:25.487Z,-3.56
2023-02-16T03:25:12.625Z,-3.56
2023-02-16T03:28:01.596Z,-3.57
2023-02-16T03:30:31.408Z,-3.58
2023-02-16T03:33:00.312Z,-3.61
2023-02-16T03:35:29.292Z,-3.65
2023-02-16T03:37:58.584Z,-3.71
2023-02-16T03:40:30.237Z,-3.76
2023-02-16T03:43:06.705Z,-3.81
2023-02-16T03:45:37.983Z,-3.83
2023-02-16T03:48:09.081Z,-3.86
2023-02-16T03:50:37.876Z,-3.88
2023-02-16T03:53:07.591Z,-3.91
2023-02-16T03:55:46.883Z,-3.93
2023-02-16T03:58:17.637Z,-3.96
2023-02-16T04:00:46.240Z,-3.97
2023-02-16T04:03:14.718Z,-3.96
2023-02-16T04:05:44.383Z,-3.97
2023-02-16T04:08:14.056Z,-3.95
2023-02-16T04:10:45.996Z,-3.97
2023-02-16T04:13:14.990Z,-4.00
2023-02-16T04:15:43.505Z,-4.02
2023-02-16T04:18:12.064Z,-4.05
2023-02-16T04:20:40.639Z,-4.09
2023-02-16T04:23:09.741Z,-4.11
2023-02-16T04:25:38.424Z,-4.12
2023-02-16T04:28:08.538Z,-4.15
2023-02-16T04:30:37.417Z,-4.17
2023-02-16T04:33:06.831Z,-4.21
2023-02-16T04:35:36.029Z,-4.23
2023-02-16T04:38:06.048Z,-4.26
2023-02-16T04:40:35.655Z,-4.27
2023-02-16T04:43:04.455Z,-4.29
2023-02-16T04:45:33.243Z,-4.31
2023-02-16T04:48:01.815Z,-4.34
2023-02-16T04:50:31.931Z,-4.36
2023-02-16T04:53:00.314Z,-4.39
2023-02-16T04:55:30.097Z,-4.42
2023-02-16T04:57:58.813Z,-4.43
2023-02-16T05:00:27.450Z,-4.43
2023-02-16T05:02:57.053Z,-4.44
2023-02-16T05:05:26.329Z,-4.43
2023-02-16T05:07:54.902Z,-4.41
2023-02-16T05:10:23.429Z,-4.36
2023-02-16T05:13:11.557Z,-4.33
2023-02-16T05:15:45.399Z,-4.28
2023-02-16T05:18:19.221Z,-4.25
2023-02-16T05:21:12.416Z,-4.22
2023-02-16T05:23:42.499Z,-4.17
2023-02-16T05:26:11.085Z,-4.12
2023-02-16T05:28:40.469Z,-4.09
2023-02-16T05:31:08.990Z,-4.07
2023-02-16T05:33:38.369Z,-4.07
2023-02-16T05:36:07.365Z,-4.04
2023-02-16T05:38:36.437Z,-4.01
2023-02-16T05:41:05.541Z,-3.96
2023-02-16T05:43:34.497Z,-3.88
2023-02-16T05:46:08.428Z,-3.82
2023-02-16T05:48:37.608Z,-3.77
2023-02-16T05:51:06.857Z,-3.71
2023-02-16T05:53:35.373Z,-3.62
2023-02-16T05:56:07.282Z,-3.55
2023-02-16T05:58:36.101Z,-3.51
2023-02-16T06:01:05.256Z,-3.48
2023-02-16T06:03:34.087Z,-3.45
2023-02-16T06:06:02.764Z,-3.40
2023-02-16T06:08:35.385Z,-3.35
2023-02-16T06:11:07.231Z,-3.30
2023-02-16T06:13:41.316Z,-3.22
2023-02-16T06:16:10.572Z,-3.15
2023-02-16T06:18:39.194Z,-3.13
2023-02-16T06:21:07.603Z,-3.11
2023-02-16T06:23:36.186Z,-3.13
2023-02-16T06:26:05.172Z,-3.14
2023-02-16T06:28:34.187Z,-3.12
2023-02-16T06:31:03.359Z,-3.10
2023-02-16T06:33:32.543Z,-3.08
2023-02-16T06:36:05.944Z,-3.02
2023-02-16T06:38:35.342Z,-2.99
2023-02-16T06:41:04.648Z,-2.94
2023-02-16T06:43:33.531Z,-2.88
2023-02-16T06:46:02.218Z,-2.76
2023-02-16T06:48:31.049Z,-2.63
2023-02-16T06:50:59.659Z,-2.48
2023-02-16T06:53:28.696Z,-2.36
2023-02-16T06:55:57.578Z,-2.25
2023-02-16T06:58:26.673Z,-2.14
2023-02-16T07:00:55.637Z,-2.05
2023-02-16T07:03:25.176Z,-1.92
2023-02-16T07:05:53.855Z,-1.85
2023-02-16T07:08:25.956Z,-1.77
2023-02-16T07:10:55.319Z,-1.69
2023-02-16T07:13:23.811Z,-1.57
2023-02-16T07:15:52.342Z,-1.36
2023-02-16T07:18:21.995Z,-1.14
2023-02-16T07:20:51.621Z,-0.92
2023-02-16T07:23:21.479Z,-0.75
2023-02-16T07:25:49.996Z,-0.63
2023-02-16T07:28:19.813Z,-0.53
2023-02-16T07:30:48.338Z,-0.37
2023-02-16T07:33:18.511Z,-0.24
2023-02-16T07:35:47.104Z,-0.13
2023-02-16T07:38:16.690Z,-0.01
2023-02-16T07:40:45.287Z,0.11
2023-02-16T07:43:16.019Z,0.23
2023-02-16T07:45:44.657Z,0.33
2023-02-16T07:48:14.221Z,0.36
2023-02-16T07:50:43.514Z,0.38
2023-02-16T07:53:13.065Z,0.41
2023-02-16T07:55:43.237Z,0.41
2023-02-16T07:58:12.388Z,0.41
2023-02-16T08:00:41.433Z,0.48
2023-02-16T08:03:09.867Z,0.57
2023-02-16T08:05:38.520Z,0.65
2023-02-16T08:08:07.286Z,0.77
2023-02-16T08:10:36.687Z,0.86
2023-02-16T08:13:05.180Z,0.92
2023-02-16T08:15:33.548Z,0.99
2023-02-16T08:18:02.313Z,1.10
2023-02-16T08:20:51.124Z,1.20
2023-02-16T08:23:21.028Z,1.35
2023-02-16T08:25:49.710Z,1.50
2023-02-16T08:28:19.608Z,1.75
2023-02-16T08:30:48.193Z,2.04
2023-02-16T08:33:16.597Z,2.29
2023-02-16T08:35:45.681Z,2.48
2023-02-16T08:38:17.438Z,2.61
2023-02-16T08:40:50.183Z,2.74
2023-02-16T08:43:19.519Z,2.88
2023-02-16T08:45:49.000Z,2.96
2023-02-16T08:48:18.130Z,2.94
2023-02-16T08:50:47.319Z,2.90
2023-02-16T08:53:17.272Z,2.88
2023-02-16T08:55:57.911Z,2.81
2023-02-16T08:58:27.817Z,2.72
2023-02-16T09:00:56.408Z,2.65
2023-02-16T09:03:27.012Z,2.55
2023-02-16T09:05:55.501Z,2.45
2023-02-16T09:08:23.978Z,2.29
2023-02-16T09:10:52.662Z,2.13
2023-02-16T09:13:21.991Z,1.98
2023-02-16T09:15:51.308Z,1.83
2023-02-16T09:18:23.228Z,1.64
2023-02-16T09:20:51.940Z,1.49
2023-02-16T09:23:22.016Z,1.44
2023-02-16T09:25:51.241Z,1.44
2023-02-16T09:28:20.939Z,1.48
2023-02-16T09:30:49.582Z,1.54
2023-02-16T09:33:19.101Z,1.51
2023-02-16T09:35:48.632Z,1.46
2023-02-16T09:38:18.094Z,1.41
2023-02-16T09:40:46.729Z,1.34
2023-02-16T09:43:30.725Z,1.26
2023-02-16T09:46:03.243Z,1.09
2023-02-16T09:48:42.796Z,0.88
2023-02-16T09:51:38.400Z,0.77
2023-02-16T09:54:34.991Z,0.76
2023-02-16T09:57:21.146Z,0.80
2023-02-16T09:59:52.482Z,0.87
2023-02-16T10:02:30.063Z,0.89
2023-02-16T10:05:17.574Z,0.85
2023-02-16T10:08:08.218Z,0.76
2023-02-16T10:10:40.299Z,0.68
2023-02-16T10:13:24.045Z,0.57
2023-02-16T10:15:54.020Z,0.45
2023-02-16T10:18:29.867Z,0.41
2023-02-16T10:21:00.272Z,0.50
2023-02-16T10:23:52.045Z,0.83
2023-02-16T10:26:22.813Z,1.46
2023-02-16T10:28:53.283Z,2.18
2023-02-16T10:31:43.665Z,2.85
2023-02-16T10:34:37.264Z,3.53
2023-02-16T10:37:24.360Z,4.15
2023-02-16T10:40:01.913Z,4.64
2023-02-16T10:42:37.170Z,5.02
2023-02-16T10:45:15.609Z,5.26
2023-02-16T10:47:46.065Z,5.34
2023-02-16T10:50:23.570Z,5.20
2023-02-16T10:52:53.028Z,4.97
2023-02-16T10:55:22.130Z,4.71
2023-02-16T10:57:59.033Z,4.46
2023-02-16T11:00:40.327Z,4.21
2023-02-16T11:03:11.153Z,3.98
2023-02-16T11:05:40.682Z,3.84
2023-02-16T11:08:11.471Z,3.69
2023-02-16T11:10:51.939Z,3.48
2023-02-16T11:13:48.110Z,3.24
2023-02-16T11:16:22.318Z,3.02
2023-02-16T11:18:58.052Z,2.84
2023-02-16T11:21:47.652Z,2.66
2023-02-16T11:24:30.345Z,2.49
2023-02-16T11:27:05.833Z,2.36
2023-02-16T11:29:34.894Z,2.23
2023-02-16T11:32:13.855Z,2.15
2023-02-16T11:34:45.987Z,1.99
2023-02-16T11:37:32.062Z,1.79
2023-02-16T11:40:03.220Z,1.65
2023-02-16T11:42:40.631Z,1.51
2023-02-16T11:45:09.668Z,1.36
2023-02-16T11:47:40.546Z,1.27
2023-02-16T11:50:19.496Z,1.14
2023-02-16T11:52:50.190Z,1.01
2023-02-16T11:55:36.141Z,0.89
2023-02-16T11:58:34.291Z,0.76
2023-02-16T12:01:21.834Z,0.60
2023-02-16T12:04:12.417Z,0.43
2023-02-16T12:07:03.971Z,0.21
2023-02-16T12:09:35.256Z,0.06
2023-02-16T12:12:10.739Z,-0.04
2023-02-16T12:14:51.469Z,-0.05
2023-02-16T12:17:28.147Z,0.00
2023-02-16T12:20:23.201Z,0.12
2023-02-16T12:22:59.537Z,0.19
2023-02-16T12:25:45.217Z,0.16
2023-02-16T12:28:28.754Z,0.03
2023-02-16T12:31:30.104Z,-0.03
2023-02-16T12:34:17.276Z,-0.02
2023-02-16T12:37:09.536Z,0.00
2023-02-16T12:40:19.347Z,0.07
2023-02-16T12:42:57.717Z,0.26
2023-02-16T12:45:28.441Z,0.51
2023-02-16T12:47:59.826Z,0.70
2023-02-16T12:50:28.788Z,0.83
2023-02-16T12:53:14.614Z,0.97
2023-02-16T12:55:46.992Z,1.10
2023-02-16T12:58:24.594Z,1.19
2023-02-16T13:00:57.567Z,1.19
2023-02-16T13:03:47.127Z,1.20
2023-02-16T13:06:47.486Z,1.17
2023-02-16T13:09:41.612Z,1.08
2023-02-16T13:12:31.852Z,0.93
2023-02-16T13:15:08.162Z,0.73
2023-02-16T13:17:45.558Z,0.57
2023-02-16T13:20:16.825Z,0.37
2023-02-16T13:23:04.537Z,0.19
2023-02-16T13:25:43.494Z,0.04
2023-02-16T13:29:03.594Z,-0.07
2023-02-16T13:31:35.129Z,-0.20
2023-02-16T13:34:22.251Z,-0.31
2023-02-16T13:37:30.962Z,-0.40
2023-02-16T13:40:22.676Z,-0.49
2023-02-16T13:43:06.614Z,-0.57
2023-02-16T13:45:38.960Z,-0.64
2023-02-16T13:48:29.094Z,-0.70
2023-02-16T13:50:59.932Z,-0.77
2023-02-16T13:53:34.732Z,-0.82
2023-02-16T13:56:23.935Z,-0.87
2023-02-16T13:58:53.102Z,-0.93
2023-02-16T14:01:43.169Z,-0.98
2023-02-16T14:04:28.104Z,-1.05
2023-02-16T14:07:07.573Z,-1.11
2023-02-16T14:09:38.948Z,-1.15
2023-02-16T14:12:14.699Z,-1.18
2023-02-16T14:14:43.300Z,-1.20
2023-02-16T14:17:14.736Z,-1.23
2023-02-16T14:19:49.918Z,-1.25
2023-02-16T14:22:29.894Z,-1.27
2023-02-16T14:25:00.006Z,-1.31
2023-02-16T14:27:48.286Z,-1.36
2023-02-16T14:30:36.662Z,-1.40
2023-02-16T14:33:20.065Z,-1.43
2023-02-16T14:35:58.241Z,-1.45
2023-02-16T14:38:28.969Z,-1.45
2023-02-16T14:40:59.629Z,-1.46
2023-02-16T14:43:35.701Z,-1.45
2023-02-16T14:46:19.679Z,-1.46
2023-02-16T14:49:39.458Z,-1.51
2023-02-16T14:52:20.141Z,-1.63
2023-02-16T14:55:26.335Z,-1.80
2023-02-16T14:58:09.799Z,-1.91
2023-02-16T15:00:46.071Z,-1.95
2023-02-16T15:03:23.461Z,-1.98
2023-02-16T15:06:06.156Z,-2.01
2023-02-16T15:08:37.411Z,-2.05
2023-02-16T15:11:20.552Z,-2.10
2023-02-16T15:13:53.639Z,-2.20
2023-02-16T15:16:25.367Z,-2.27
2023-02-16T15:18:55.082Z,-2.30
2023-02-16T15:21:28.573Z,-2.34
2023-02-16T15:23:58.404Z,-2.38
2023-02-16T15:26:31.660Z,-2.40
2023-02-16T15:29:03.663Z,-2.40
2023-02-16T15:31:37.306Z,-2.41
2023-02-16T15:34:13.594Z,-2.42
2023-02-16T15:36:44.200Z,-2.46
2023-02-16T15:39:17.666Z,-2.49
2023-02-16T15:41:48.215Z,-2.50
2023-02-16T15:44:36.397Z,-2.50
2023-02-16T15:47:17.591Z,-2.52
2023-02-16T15:49:46.187Z,-2.56
2023-02-16T15:52:18.071Z,-2.58
2023-02-16T15:54:46.906Z,-2.60
2023-02-16T15:57:32.904Z,-2.61
2023-02-16T16:00:19.533Z,-2.62
2023-02-16T16:02:52.640Z,-2.60
2023-02-16T16:05:25.919Z,-2.60
2023-02-16T16:07:55.292Z,-2.64
2023-02-16T16:10:32.815Z,-2.68
2023-02-16T16:13:18.092Z,-2.71
2023-02-16T16:15:48.588Z,-2.73
2023-02-16T16:18:43.578Z,-2.75
2023-02-16T16:21:21.566Z,-2.75
2023-02-16T16:23:55.240Z,-2.73
2023-02-16T16:26:24.050Z,-2.72
2023-02-16T16:28:52.758Z,-2.72
2023-02-16T16:31:21.674Z,-2.73
2023-02-16T16:34:01.538Z,-2.74
2023-02-16T16:36:33.608Z,-2.76
2023-02-16T16:39:17.553Z,-2.77
2023-02-16T16:42:24.971Z,-2.80
2023-02-16T16:45:07.212Z,-2.82
2023-02-16T16:47:40.161Z,-2.87
2023-02-16T16:50:15.348Z,-2.94
2023-02-16T16:52:45.498Z,-2.99
2023-02-16T16:55:19.840Z,-3.03
2023-02-16T16:57:52.024Z,-3.05
2023-02-16T17:00:21.315Z,-3.07
2023-02-16T17:02:49.860Z,-3.10
2023-02-16T17:05:18.750Z,-3.11
2023-02-16T17:07:49.492Z,-3.12
2023-02-16T17:10:19.653Z,-3.13
2023-02-16T17:12:49.044Z,-3.13
2023-02-16T17:15:28.574Z,-3.12
2023-02-16T17:17:57.336Z,-3.12
2023-02-16T17:20:25.842Z,-3.12
2023-02-16T17:22:54.815Z,-3.12
2023-02-16T17:25:23.421Z,-3.11
2023-02-16T17:27:52.282Z,-3.09
2023-02-16T17:30:21.134Z,-3.07
2023-02-16T17:32:49.965Z,-3.05
2023-02-16T17:35:18.882Z,-3.04
2023-02-16T17:37:48.052Z,-3.03
2023-02-16T17:40:19.841Z,-3.03
2023-02-16T17:42:48.801Z,-3.03
2023-02-16T17:45:20.876Z,-3.03
2023-02-16T17:47:53.297Z,-3.04
2023-02-16T17:50:23.360Z,-3.06
2023-02-16T17:53:06.847Z,-3.08
2023-02-16T17:55:37.894Z,-3.10
2023-02-16T17:58:06.662Z,-3.13
2023-02-16T18:00:35.745Z,-3.15
2023-02-16T18:03:07.021Z,-3.18
2023-02-16T18:05:35.748Z,-3.20
2023-02-16T18:08:04.435Z,-3.22
2023-02-16T18:10:34.734Z,-3.24
2023-02-16T18:13:04.372Z,-3.27
2023-02-16T18:15:33.618Z,-3.31
2023-02-16T18:18:02.192Z,-3.34
2023-02-16T18:20:31.079Z,-3.36
2023-02-16T18:22:59.883Z,-3.38
2023-02-16T18:25:28.923Z,-3.40
2023-02-16T18:27:58.876Z,-3.42
2023-02-16T18:30:27.484Z,-3.44
2023-02-16T18:32:57.157Z,-3.46
2023-02-16T18:35:25.525Z,-3.48
2023-02-16T18:37:54.428Z,-3.52
2023-02-16T18:40:23.545Z,-3.54
2023-02-16T18:42:53.349Z,-3.56
2023-02-16T18:45:22.296Z,-3.58
2023-02-16T18:47:52.078Z,-3.59
2023-02-16T18:50:21.152Z,-3.60
2023-02-16T18:52:50.529Z,-3.62
2023-02-16T18:55:19.207Z,-3.63
2023-02-16T18:57:48.124Z,-3.64
2023-02-16T19:00:17.680Z,-3.65
2023-02-16T19:02:47.842Z,-3.66
2023-02-16T19:05:17.053Z,-3.66
2023-02-16T19:07:45.417Z,-3.67
2023-02-16T19:10:19.862Z,-3.68
2023-02-16T19:12:49.374Z,-3.69
2023-02-16T19:15:17.855Z,-3.71
2023-02-16T19:17:48.298Z,-3.72
2023-02-16T19:20:18.732Z,-3.72
2023-02-16T19:22:48.134Z,-3.74
2023-02-16T19:25:17.214Z,-3.75
2023-02-16T19:27:45.882Z,-3.75
2023-02-16T19:30:14.885Z,-3.76
2023-02-16T19:32:44.873Z,-3.77
2023-02-16T19:35:13.336Z,-3.76
2023-02-16T19:37:43.853Z,-3.75
2023-02-16T19:40:13.897Z,-3.75
2023-02-16T19:42:44.622Z,-3.74
2023-02-16T19:45:13.300Z,-3.74
2023-02-16T19:47:41.911Z,-3.74
2023-02-16T19:50:10.783Z,-3.73
2023-02-16T19:52:39.159Z,-3.74
2023-02-16T19:55:09.060Z,-3.75
2023-02-16T19:57:41.460Z,-3.75
2023-02-16T20:00:12.932Z,-3.75
2023-02-16T20:02:42.041Z,-3.76
2023-02-16T20:05:11.835Z,-3.78
2023-02-16T20:07:40.552Z,-3.79
2023-02-16T20:10:09.732Z,-3.80
2023-02-16T20:12:38.774Z,-3.79
2023-02-16T20:15:09.882Z,-3.79
2023-02-16T20:17:39.037Z,-3.78
2023-02-16T20:20:08.154Z,-3.78
2023-02-16T20:22:37.514Z,-3.78
2023-02-16T20:25:06.817Z,-3.79
2023-02-16T20:27:37.006Z,-3.79
2023-02-16T20:30:07.160Z,-3.80
2023-02-16T20:32:36.307Z,-3.79
2023-02-16T20:35:07.307Z,-3.78
2023-02-16T20:37:36.059Z,-3.78
2023-02-16T20:40:06.101Z,-3.78
2023-02-16T20:42:36.935Z,-3.78
2023-02-16T20:45:06.048Z,-3.79
2023-02-16T20:47:34.407Z,-3.80
2023-02-16T20:50:03.556Z,-3.81
2023-02-16T20:52:32.392Z,-3.80
2023-02-16T20:55:01.078Z,-3.81
2023-02-16T20:57:29.876Z,-3.81
2023-02-16T20:59:58.452Z,-3.82
2023-02-16T21:02:27.291Z,-3.83
2023-02-16T21:04:58.486Z,-3.83
2023-02-16T21:07:27.236Z,-3.84
2023-02-16T21:09:55.660Z,-3.84
2023-02-16T21:12:24.438Z,-3.84
2023-02-16T21:14:52.976Z,-3.83
2023-02-16T21:17:22.978Z,-3.83
2023-02-16T21:19:51.929Z,-3.83
2023-02-16T21:22:20.721Z,-3.82
2023-02-16T21:24:49.333Z,-3.81
2023-02-16T21:27:18.033Z,-3.82
2023-02-16T21:29:46.412Z,-3.83
2023-02-16T21:32:14.853Z,-3.86
2023-02-16T21:34:44.667Z,-3.89
2023-02-16T21:37:13.026Z,-3.94
2023-02-16T21:40:02.004Z,-4.00
2023-02-16T21:42:30.699Z,-4.06
2023-02-16T21:45:14.770Z,-4.11
2023-02-16T21:48:03.389Z,-4.15
2023-02-16T21:50:35.053Z,-4.19
2023-02-16T21:53:04.965Z,-4.23
2023-02-16T21:55:52.613Z,-4.25
2023-02-16T21:58:21.591Z,-4.27
2023-02-16T22:00:50.684Z,-4.27
2023-02-16T22:03:20.578Z,-4.26
2023-02-16T22:05:49.499Z,-4.22
2023-02-16T22:08:18.077Z,-4.20
2023-02-16T22:10:49.625Z,-4.18
2023-02-16T22:13:18.823Z,-4.16
2023-02-16T22:15:49.039Z,-4.13
2023-02-16T22:18:17.935Z,-4.11
2023-02-16T22:20:46.412Z,-4.09
2023-02-16T22:23:16.200Z,-4.06
2023-02-16T22:25:44.765Z,-4.06
2023-02-16T22:28:13.802Z,-4.07
2023-02-16T22:30:44.488Z,-4.11
2023-02-16T22:33:15.489Z,-4.22
2023-02-16T22:35:44.174Z,-4.35
2023-02-16T22:38:13.282Z,-4.48
2023-02-16T22:40:41.982Z,-4.60
2023-02-16T22:43:10.855Z,-4.71
2023-02-16T22:45:39.750Z,-4.81
2023-02-16T22:48:08.516Z,-4.92
2023-02-16T22:50:37.923Z,-5.05
2023-02-16T22:53:06.349Z,-5.18
2023-02-16T22:55:34.711Z,-5.29
2023-02-16T22:58:03.085Z,-5.41
2023-02-16T23:00:31.549Z,-5.54
2023-02-16T23:03:01.151Z,-5.69
2023-02-16T23:05:30.557Z,-5.87
2023-02-16T23:07:59.135Z,-6.02
2023-02-16T23:10:28.123Z,-6.17
2023-02-16T23:12:57.394Z,-6.32
2023-02-16T23:15:26.107Z,-6.44
2023-02-16T23:18:15.377Z,-6.56
2023-02-16T23:20:44.185Z,-6.66
2023-02-16T23:23:14.205Z,-6.76
2023-02-16T23:25:48.719Z,-6.85
2023-02-16T23:28:17.141Z,-6.94
2023-02-16T23:30:46.439Z,-6.98
2023-02-16T23:33:17.021Z,-6.97
2023-02-16T23:35:45.905Z,-6.96
2023-02-16T23:38:16.748Z,-6.94
2023-02-16T23:40:45.602Z,-6.90
2023-02-16T23:43:14.011Z,-6.86
2023-02-16T23:45:43.072Z,-6.77
2023-02-16T23:48:12.018Z,-6.69
2023-02-16T23:50:40.714Z,-6.64
2023-02-16T23:53:09.189Z,-6.53
2023-02-16T23:55:37.752Z,-6.39
2023-02-16T23:58:06.642Z,-6.24
